首页
METAR-TAF:

METAR-TAF

机场 :

华盛顿杜勒斯国际机场

华盛顿, 弗吉尼亚州, 美国

纬度: 38-56-05N, 经度: 077-26-51W, 海拔: 95米

当前天气观测

该预报发布于13分钟前的09:52 UTC
风速4节,风向西北
温度 -5°C
湿度 58%
气压 1028 hPa
能見度: 16.1公里
天空无云

METAR: KIAD 130952Z 32004KT 10SM CLR M05/M12 A3036 RMK AO2 SLP285 T10501117

时间: 05:05 (10:05 UTC)

预报

该预报发布于1小时和10分钟前的08:55 UTC
预报有效从13日的 09点(UTC)到 14日的 12点(UTC)
风速8节,风向西北
能見度: 10公里
天空无云
从 13日的 1300点(UTC)
风速8节,风向西北,有时为16节阵风
能見度: 10公里
散云层高于20000英尺
从 13日的 1800点(UTC)
风速8节,风向西北
能見度: 10公里
多云层高于20000英尺
从 13日的 2300点(UTC)
风速3节,风向多变
能見度: 10公里
少量云层高于20000英尺

TAF: KIAD 130855Z 1309/1412 32008KT P6SM SKC FM131300 32008G16KT P6SM SCT200 FM131800 32008KT P6SM BKN200 FM132300 VRB03KT P6SM FEW200

超过4000个机场的气象观测和天气预报(METAR&TAF报告)。

可查询的气象台以黄色和红色小点在地图上表示。

将鼠标移到小点上方,可查看气象台名称。

然后点击查看天气观测和预报。

如需切换地图:点击带黑十字的绿色按钮放大地图;点击带横线的绿色按钮缩小地图;或者点击绿色箭头查看邻近地区的地图。


METAR-TAF: